Elhovo, Bulgaria

9:46 PM EEST on August 27, 2016 (GMT +0300)
Razdel | | Change Station

Elev 692 ft 42.08 °N, 26.65 °E | Updated 3 seconds ago

Scattered Clouds
Scattered Clouds
64.9 °F
Feels Like 64.9 °F
N
0.0
Wind Variable Wind from North
Gusts 1.2 mph

Today
High -- | Low -- °F
--% Chance of Precip.
Yesterday
High -- | Low -- °F
Precip. -- in
Pressure 30.12 in
Visibility 6.2 miles
Clouds Scattered Clouds 4800 ft
Dew Point 57 °F
Humidity 75%
Rainfall 0.00 in
Snow Depth Not available.
6:34 AM 7:55 PM
Waning Crescent, 22% visible
METAR LBBG 271830Z 05005KT 9999 SCT048 21/16 Q1020 NOSIG
Pressure 30.12 in
Visibility 6.2 miles
Clouds Scattered Clouds 4800 ft
Dew Point 57 °F
Humidity 75%
Rainfall 0.00 in
Snow Depth Not available.
6:34 AM 7:55 PM
Waning Crescent, 22% visible
METAR LBBG 271830Z 05005KT 9999 SCT048 21/16 Q1020 NOSIG

10-Day Weather Forecast

×

Almanac

Astronomy

Aug. 27, 2016 Rise Set
Actual Time
Civil Twilight
Nautical Twilight
Astronomical Twilight
Moon
Length of Visible Light
Length of Day
Tomorrow will be .
, % of the Moon is Illuminated

Today's Extremes

Country Highs Country Lows

Community

WunderPhotos

Upload Photos

1,935,399 photos uploaded!

WunderBlog® & News

Nearby

Air Quality

  Air Quality AQ Index Pollutant
Not available.

Snow Depth

Station Depth Elevation

Earthquake Activity

City Distance Mag. Time & Date
Minimum magnitude displayed is 2.5.

Coastal Water Temperatures

Place Temperature

Stations

Nearby Weather Stations

Station Location Temp. Windchill Dew Point Humidity Wind Precip. Elev Updated Type